Time;durP1;ratioP1;P1;durP2;ratioP2;P2;SDS_P1;SDS_P2;PMS_P1;PMS_P2;Temp;Humidity;BMP_temperature;BMP_pressure;BME280_temperature;BME280_humidity;BME280_pressure;Samples;Min_cycle;Max_cycle;Signal;HPM_P1;HPM_P2
2023/12/02 00:01:36;;;;;;;11.77;6.65;;;;;;;18.53;38.71;101123.28;5042545;28;20443;-39
2023/12/02 00:04:01;;;;;;;9.73;6.40;;;;;;;18.53;38.56;101127.94;5039075;28;20320;-39
2023/12/02 00:06:26;;;;;;;8.18;6.53;;;;;;;18.51;38.48;101130.13;5017006;28;20025;-39
2023/12/02 00:08:52;;;;;;;10.50;6.80;;;;;;;18.49;38.63;101127.66;5017582;28;20037;-39
2023/12/02 00:11:17;;;;;;;8.98;6.45;;;;;;;18.47;38.55;101121.63;5041578;28;20029;-39
2023/12/02 00:13:43;;;;;;;8.98;6.28;;;;;;;18.46;38.50;101119.97;5041191;28;20356;-39
2023/12/02 00:16:09;;;;;;;8.40;6.72;;;;;;;18.44;38.73;101120.25;5040991;28;20428;-39
2023/12/02 00:18:34;;;;;;;8.93;6.95;;;;;;;18.43;38.62;101115.03;5036242;28;20108;-39
2023/12/02 00:21:00;;;;;;;9.80;6.85;;;;;;;18.41;38.86;101104.31;5041224;28;20108;-40
2023/12/02 00:23:25;;;;;;;9.23;7.03;;;;;;;18.42;38.57;101107.91;5034602;28;20037;-39
2023/12/02 00:25:50;;;;;;;11.45;7.55;;;;;;;18.39;38.65;101095.56;5042453;28;20025;-39
2023/12/02 00:28:16;;;;;;;9.80;7.10;;;;;;;18.37;38.54;101095.00;5039799;28;20241;-39
2023/12/02 00:30:41;;;;;;;10.82;7.45;;;;;;;18.38;38.48;101095.81;5032592;28;20029;-38
2023/12/02 00:33:08;;;;;;;11.27;7.72;;;;;;;18.36;38.65;101123.53;5038715;28;20430;-39
2023/12/02 00:35:33;;;;;;;12.00;7.80;;;;;;;18.35;38.76;101123.81;5036630;28;20359;-39
2023/12/02 00:37:58;;;;;;;10.13;7.32;;;;;;;18.33;38.45;101117.75;5040397;28;20032;-38
2023/12/02 00:40:24;;;;;;;9.60;7.72;;;;;;;18.30;38.86;101119.13;5034366;28;20025;-38
2023/12/02 00:42:50;;;;;;;9.60;7.10;;;;;;;18.31;38.63;101112.56;5021783;28;20847;-39
2023/12/02 00:45:15;;;;;;;10.60;7.55;;;;;;;18.29;38.59;101112.00;5024796;28;20334;-38
2023/12/02 00:47:41;;;;;;;10.50;7.05;;;;;;;18.28;38.66;101116.66;5040301;28;20461;-39
2023/12/02 00:50:07;;;;;;;11.32;7.18;;;;;;;18.27;38.55;101112.28;5023373;28;20025;-38
2023/12/02 00:52:32;;;;;;;9.15;6.65;;;;;;;18.26;38.73;101112.56;5023134;28;20128;-39
2023/12/02 00:54:58;;;;;;;13.15;7.35;;;;;;;18.23;38.60;101107.59;5033407;28;20325;-39
2023/12/02 00:57:23;;;;;;;9.32;6.80;;;;;;;18.23;38.65;101113.91;5039305;28;20386;-39
2023/12/02 00:59:49;;;;;;;9.52;7.22;;;;;;;18.23;38.60;101113.91;5041221;28;20229;-36
2023/12/02 01:02:14;;;;;;;9.02;7.28;;;;;;;18.22;38.65;101105.94;5041432;28;20013;-36
2023/12/02 01:04:39;;;;;;;9.57;7.28;;;;;;;18.22;38.82;101115.00;5045629;28;20170;-36
2023/12/02 01:07:05;;;;;;;9.85;7.18;;;;;;;18.21;38.62;101107.03;5044795;28;20025;-36
2023/12/02 01:09:30;;;;;;;9.55;7.05;;;;;;;18.19;38.65;101096.34;5044566;28;20094;-36
2023/12/02 01:11:56;;;;;;;11.13;7.65;;;;;;;18.17;38.74;101100.44;5043052;28;20040;-36
2023/12/02 01:14:21;;;;;;;9.45;7.20;;;;;;;18.17;38.69;101100.44;5023795;28;20432;-36
2023/12/02 01:16:47;;;;;;;9.95;7.05;;;;;;;18.17;38.69;101100.44;5040017;28;20025;-36
2023/12/02 01:19:12;;;;;;;10.13;7.40;;;;;;;18.15;38.74;101102.63;5041231;28;20021;-36
2023/12/02 01:21:38;;;;;;;11.70;7.82;;;;;;;18.14;38.72;101111.97;5044449;28;20021;-36
2023/12/02 01:24:03;;;;;;;10.35;7.18;;;;;;;18.12;38.81;101114.97;5044568;28;20051;-36
2023/12/02 01:26:29;;;;;;;9.50;7.38;;;;;;;18.11;39.01;101107.84;5045089;28;20313;-36
2023/12/02 01:28:54;;;;;;;10.43;7.10;;;;;;;18.09;38.76;101113.59;5044617;28;20037;-36
2023/12/02 01:31:19;;;;;;;9.40;7.03;;;;;;;18.08;38.80;101113.88;5045738;28;20072;-36
2023/12/02 01:33:45;;;;;;;9.82;7.07;;;;;;;18.06;39.00;101118.81;5043583;28;20482;-36
2023/12/02 01:36:13;;;;;;;9.48;7.03;;;;;;;18.06;39.08;101116.91;5044522;28;20045;-36
2023/12/02 01:38:39;;;;;;;9.27;7.22;;;;;;;18.04;38.98;101112.78;5043248;28;20029;-36
2023/12/02 01:41:04;;;;;;;9.63;6.97;;;;;;;18.03;38.86;101117.44;5044327;28;21020;-36
2023/12/02 01:43:30;;;;;;;9.30;7.15;;;;;;;18.02;38.73;101109.47;5043911;28;20032;-37
2023/12/02 01:45:56;;;;;;;9.40;6.95;;;;;;;18.01;39.07;101116.06;5044147;28;20104;-36
2023/12/02 01:48:29;;;;;;;9.63;6.90;;;;;;;18.00;38.89;101109.75;5039099;28;20086;-36
2023/12/02 01:50:55;;;;;;;9.30;6.80;;;;;;;17.98;38.94;101106.44;5044233;28;20028;-36
2023/12/02 01:53:21;;;;;;;9.80;7.20;;;;;;;17.96;38.96;101103.97;5024806;28;20039;-36
2023/12/02 01:55:46;;;;;;;9.65;6.60;;;;;;;17.94;39.02;101100.69;5044927;28;20033;-36
2023/12/02 01:58:12;;;;;;;9.73;7.07;;;;;;;17.94;38.81;101111.66;5033849;28;20437;-36
2023/12/02 02:00:37;;;;;;;11.25;7.10;;;;;;;17.92;39.01;101102.81;5025862;28;20325;-36
2023/12/02 02:03:02;;;;;;;9.35;6.72;;;;;;;17.90;38.97;101093.22;5043172;28;20032;-36
2023/12/02 02:05:28;;;;;;;10.85;7.72;;;;;;;17.91;38.95;101101.16;5043120;28;20036;-35
2023/12/02 02:07:53;;;;;;;8.75;6.68;;;;;;;17.89;39.01;101094.31;5045566;28;20032;-36
2023/12/02 02:10:22;;;;;;;9.27;6.80;;;;;;;17.88;38.93;101096.25;5025858;28;20397;-35
2023/12/02 02:12:48;;;;;;;8.48;6.70;;;;;;;17.87;39.01;101105.56;5024764;28;20039;-36
2023/12/02 02:15:13;;;;;;;9.57;7.07;;;;;;;17.87;38.97;101096.53;5017002;28;20022;-36
2023/12/02 02:17:38;;;;;;;8.82;6.82;;;;;;;17.85;39.10;101096.75;5039332;28;20489;-36
2023/12/02 02:20:05;;;;;;;8.60;6.93;;;;;;;17.85;38.83;101104.19;5038913;28;20021;-36
2023/12/02 02:22:30;;;;;;;9.88;6.63;;;;;;;17.84;39.01;101099.78;5026213;28;20025;-36
2023/12/02 02:24:56;;;;;;;9.00;6.93;;;;;;;17.83;39.00;101109.09;5032767;28;20534;-35
2023/12/02 02:27:21;;;;;;;9.43;6.68;;;;;;;17.82;39.11;101108.28;5043167;28;20033;-36
2023/12/02 02:29:46;;;;;;;8.07;6.10;;;;;;;17.80;39.01;101100.34;5043095;28;20029;-36
2023/12/02 02:32:12;;;;;;;8.93;6.78;;;;;;;17.79;38.98;101095.09;5043204;28;20480;-36
2023/12/02 02:34:40;;;;;;;8.40;6.80;;;;;;;17.79;39.02;101122.53;5043163;28;20075;-36
2023/12/02 02:37:05;;;;;;;10.07;7.10;;;;;;;17.77;39.05;101114.56;5039215;28;20104;-36
2023/12/02 02:39:31;;;;;;;10.23;7.10;;;;;;;17.76;39.14;101112.09;5036211;28;20042;-36
2023/12/02 02:41:56;;;;;;;7.97;6.60;;;;;;;17.75;39.08;101111.25;5025875;28;20144;-36
2023/12/02 02:44:22;;;;;;;9.18;6.93;;;;;;;17.75;39.15;101115.94;5020896;28;20474;-36
2023/12/02 02:46:48;;;;;;;9.20;6.75;;;;;;;17.74;39.16;101117.88;5017846;28;20397;-36
2023/12/02 02:49:13;;;;;;;9.60;6.93;;;;;;;17.73;39.07;101120.84;5040143;28;20435;-36
2023/12/02 02:51:38;;;;;;;10.93;7.55;;;;;;;17.71;39.44;101120.31;5037842;28;20036;-36
2023/12/02 02:54:04;;;;;;;8.85;6.90;;;;;;;17.71;39.07;101125.81;5035497;28;20092;-36
2023/12/02 02:56:29;;;;;;;10.05;7.15;;;;;;;17.68;39.10;101116.16;5042991;28;20452;-36
2023/12/02 02:58:55;;;;;;;9.57;7.20;;;;;;;17.68;39.09;101116.16;5042331;28;20027;-36
2023/12/02 03:01:20;;;;;;;9.50;7.35;;;;;;;17.66;39.08;101118.38;5042572;28;20045;-39
2023/12/02 03:03:45;;;;;;;12.77;7.57;;;;;;;17.67;39.14;101119.19;5043324;28;20104;-39
2023/12/02 03:06:11;;;;;;;9.68;7.03;;;;;;;17.66;38.93;101121.13;5041444;28;20037;-39
2023/12/02 03:08:36;;;;;;;11.40;7.63;;;;;;;17.65;39.07;101120.28;5038017;28;20044;-38
2023/12/02 03:11:02;;;;;;;9.82;7.25;;;;;;;17.64;39.16;101117.81;5042558;28;20051;-38
2023/12/02 03:13:27;;;;;;;11.73;7.82;;;;;;;17.63;39.16;101111.50;5025715;28;20060;-38
2023/12/02 03:15:53;;;;;;;9.10;7.15;;;;;;;17.63;39.14;101116.16;5042634;28;20021;-38
2023/12/02 03:18:18;;;;;;;11.55;7.95;;;;;;;17.62;39.17;101123.56;5016113;28;20032;-38
2023/12/02 03:20:44;;;;;;;9.90;7.70;;;;;;;17.61;39.22;101124.66;5042093;28;20488;-38
2023/12/02 03:23:09;;;;;;;10.00;7.57;;;;;;;17.59;39.18;101118.59;5037274;28;20414;-39
2023/12/02 03:25:35;;;;;;;9.77;7.97;;;;;;;17.58;39.17;101118.88;5039885;28;20478;-36
2023/12/02 03:28:00;;;;;;;11.30;8.30;;;;;;;17.57;39.11;101115.31;5019503;28;20081;-36
2023/12/02 03:30:25;;;;;;;9.82;7.72;;;;;;;17.55;39.20;101119.44;5040214;28;20616;-36
2023/12/02 03:32:51;;;;;;;9.77;7.88;;;;;;;17.54;39.05;101115.84;5042524;28;20052;-38
2023/12/02 03:35:16;;;;;;;11.57;7.88;;;;;;;17.53;39.22;101108.72;5030309;28;20124;-39
2023/12/02 03:37:42;;;;;;;10.60;7.63;;;;;;;17.52;39.20;101106.25;5041810;28;20358;-39
2023/12/02 03:40:08;;;;;;;10.70;8.05;;;;;;;17.52;39.19;101112.53;5038925;28;20560;-38
2023/12/02 03:42:34;;;;;;;12.07;7.85;;;;;;;17.51;39.11;101113.66;5039422;28;20028;-38
2023/12/02 03:44:59;;;;;;;10.80;7.55;;;;;;;17.49;39.16;101107.59;5033425;28;20029;-39
2023/12/02 03:47:25;;;;;;;11.00;7.60;;;;;;;17.47;39.07;101110.63;5021911;28;20326;-38
2023/12/02 03:49:50;;;;;;;10.05;7.80;;;;;;;17.47;39.31;101118.84;5037049;28;20033;-39
2023/12/02 03:52:16;;;;;;;11.45;7.95;;;;;;;17.45;39.25;101115.53;5040882;28;20033;-36
2023/12/02 03:54:41;;;;;;;11.65;8.25;;;;;;;17.44;39.19;101126.78;5040327;28;20055;-36
2023/12/02 03:57:06;;;;;;;10.43;7.78;;;;;;;17.42;39.26;101124.28;5036850;28;20058;-36
2023/12/02 03:59:32;;;;;;;10.98;8.25;;;;;;;17.42;39.05;101123.47;5019771;28;20025;-35
2023/12/02 04:01:58;;;;;;;10.05;7.90;;;;;;;17.40;39.24;101125.63;5035452;28;20032;-35
2023/12/02 04:04:24;;;;;;;9.75;7.60;;;;;;;17.40;39.20;101131.94;5031274;28;20028;-35
2023/12/02 04:06:49;;;;;;;10.25;7.90;;;;;;;17.38;39.24;101128.66;5041428;28;20493;-35
2023/12/02 04:09:16;;;;;;;10.27;7.57;;;;;;;17.37;39.51;101128.91;5041172;28;20028;-36
2023/12/02 04:11:45;;;;;;;10.20;7.88;;;;;;;17.36;39.22;101136.28;5040382;28;20459;-38
2023/12/02 04:14:11;;;;;;;10.20;7.85;;;;;;;17.35;39.23;101133.81;5029719;28;20025;-38
2023/12/02 04:16:40;;;;;;;11.65;7.88;;;;;;;17.34;39.19;101143.97;5037670;28;20045;-39
2023/12/02 04:19:07;;;;;;;10.25;7.90;;;;;;;17.32;39.26;101136.00;5042462;28;20067;-38
2023/12/02 04:21:33;;;;;;;10.32;7.72;;;;;;;17.31;39.18;101145.34;5022834;28;20032;-39
2023/12/02 04:23:58;;;;;;;9.65;7.70;;;;;;;17.29;39.35;101138.47;5041553;28;20027;-38
2023/12/02 04:26:24;;;;;;;11.30;7.75;;;;;;;17.29;39.30;101147.50;5022835;28;20033;-38
2023/12/02 04:28:49;;;;;;;10.23;7.68;;;;;;;17.28;39.41;101145.03;5019677;28;20059;-39
2023/12/02 04:31:15;;;;;;;9.63;7.65;;;;;;;17.27;39.29;101135.97;5040314;28;20045;-39
2023/12/02 04:33:40;;;;;;;10.70;8.27;;;;;;;17.25;39.46;101140.91;5023645;28;20037;-39
2023/12/02 04:36:08;;;;;;;11.18;7.95;;;;;;;17.25;39.18;101148.28;5034774;28;20510;-36
2023/12/02 04:38:33;;;;;;;11.40;8.02;;;;;;;17.23;39.27;101148.56;5029415;28;20713;-36
2023/12/02 04:40:58;;;;;;;11.43;7.90;;;;;;;17.22;39.24;101154.31;5041365;28;20116;-36
2023/12/02 04:43:24;;;;;;;10.95;8.32;;;;;;;17.21;39.27;101152.66;5019706;28;20251;-36
2023/12/02 04:45:50;;;;;;;11.23;7.93;;;;;;;17.20;39.30;101153.75;5041280;28;20457;-36
2023/12/02 04:48:16;;;;;;;11.88;8.15;;;;;;;17.19;39.27;101154.81;5039277;28;20025;-36
2023/12/02 04:50:41;;;;;;;10.85;7.65;;;;;;;17.17;39.25;101152.34;5041320;28;20163;-35
2023/12/02 04:53:08;;;;;;;13.90;8.38;;;;;;;17.17;39.37;101149.63;5041155;28;20033;-38
2023/12/02 04:55:35;;;;;;;13.18;8.38;;;;;;;17.16;39.23;101150.69;5017524;28;20087;-38
2023/12/02 04:58:01;;;;;;;11.60;8.30;;;;;;;17.15;39.26;101155.38;5015216;28;20034;-35
2023/12/02 05:00:27;;;;;;;11.35;8.07;;;;;;;17.13;39.28;101165.75;5041034;28;20182;-35
2023/12/02 05:02:53;;;;;;;11.48;8.25;;;;;;;17.13;39.13;101164.91;5018362;28;20026;-35
2023/12/02 05:05:18;;;;;;;11.98;8.60;;;;;;;17.12;39.23;101166.03;5017024;28;20028;-36
2023/12/02 05:07:44;;;;;;;11.57;8.63;;;;;;;17.11;39.37;101167.91;5041536;28;20067;-36
2023/12/02 05:10:10;;;;;;;12.93;8.38;;;;;;;17.09;39.27;101175.59;5038450;28;20029;-36
2023/12/02 05:12:36;;;;;;;10.88;8.27;;;;;;;17.09;39.25;101183.81;5041162;28;20551;-36
2023/12/02 05:15:02;;;;;;;14.18;8.52;;;;;;;17.08;39.27;101189.53;5040177;28;20036;-36
2023/12/02 05:17:27;;;;;;;11.15;8.18;;;;;;;17.08;39.26;101189.53;5020557;28;20160;-35
2023/12/02 05:19:53;;;;;;;12.73;8.70;;;;;;;17.06;39.32;101187.06;5034418;28;20067;-35
2023/12/02 05:22:18;;;;;;;15.85;8.80;;;;;;;17.06;39.40;101181.56;5023096;28;20104;-35
2023/12/02 05:24:45;;;;;;;12.88;8.05;;;;;;;17.04;39.39;101177.44;5040796;28;20035;-36
2023/12/02 05:27:10;;;;;;;12.50;9.13;;;;;;;17.02;39.30;101183.19;5040620;28;20036;-36
2023/12/02 05:29:36;;;;;;;11.88;8.15;;;;;;;17.00;39.39;101179.88;5020013;28;20029;-36
2023/12/02 05:32:01;;;;;;;11.02;8.65;;;;;;;16.99;39.40;101184.56;5041088;28;20240;-36
2023/12/02 05:34:27;;;;;;;10.48;7.90;;;;;;;16.98;39.42;101193.00;5038030;28;20028;-36
2023/12/02 05:36:52;;;;;;;11.43;8.50;;;;;;;16.97;39.48;101197.66;5034632;28;20314;-35
2023/12/02 05:39:17;;;;;;;11.10;7.97;;;;;;;16.97;39.41;101194.09;5031425;28;20078;-35
2023/12/02 05:41:43;;;;;;;10.27;8.07;;;;;;;16.98;39.48;101204.81;5036880;28;20034;-36
2023/12/02 05:44:09;;;;;;;12.50;8.23;;;;;;;17.01;39.47;101206.19;5034558;28;20488;-36
2023/12/02 05:46:35;;;;;;;10.63;7.80;;;;;;;17.04;39.48;101194.69;5041099;28;20107;-35
2023/12/02 05:49:01;;;;;;;9.25;7.50;;;;;;;17.08;39.48;101200.47;5047939;28;20036;-36
2023/12/02 05:51:26;;;;;;;10.68;8.07;;;;;;;17.11;39.60;101200.78;5042859;28;20065;-38
2023/12/02 05:53:51;;;;;;;9.10;7.38;;;;;;;17.18;39.73;101200.56;5040397;28;20040;-39
2023/12/02 05:56:21;;;;;;;9.70;7.80;;;;;;;17.25;39.54;101198.44;5044545;28;20500;-38
2023/12/02 05:58:46;;;;;;;10.20;7.32;;;;;;;17.31;39.39;101202.88;5045462;28;20044;-39
2023/12/02 06:01:12;;;;;;;9.90;7.30;;;;;;;17.39;39.45;101204.28;5026712;28;20201;-39
2023/12/02 06:03:37;;;;;;;10.55;7.60;;;;;;;17.48;39.35;101215.56;5023130;28;20458;-39
2023/12/02 06:06:03;;;;;;;9.70;7.78;;;;;;;17.53;39.41;101212.03;5043957;28;20021;-38
2023/12/02 06:08:28;;;;;;;9.30;7.40;;;;;;;17.61;39.17;101217.03;5026682;28;20029;-39
2023/12/02 06:10:54;;;;;;;10.02;8.18;;;;;;;17.68;39.16;101209.38;5044966;28;20120;-39
2023/12/02 06:13:19;;;;;;;10.05;8.02;;;;;;;17.76;39.13;101208.88;5039899;28;20056;-39
2023/12/02 06:15:44;;;;;;;8.43;7.22;;;;;;;17.85;39.03;101216.59;5034003;28;20761;-40
2023/12/02 06:18:10;;;;;;;10.88;7.82;;;;;;;17.92;39.08;101220.75;5042039;28;20079;-39
2023/12/02 06:20:35;;;;;;;8.25;7.18;;;;;;;18.01;39.37;101223.00;5044695;28;20028;-40
2023/12/02 06:23:01;;;;;;;9.60;6.95;;;;;;;18.12;39.13;101228.28;5048134;28;20064;-39
2023/12/02 06:25:26;;;;;;;11.48;7.57;;;;;;;18.21;39.11;101219.50;5048356;28;20060;-39
2023/12/02 06:27:52;;;;;;;10.07;7.18;;;;;;;18.31;39.18;101227.78;5043514;28;20055;-39
2023/12/02 06:30:18;;;;;;;9.63;7.25;;;;;;;18.38;39.06;101231.13;5030929;28;20544;-36
2023/12/02 06:32:44;;;;;;;10.63;7.00;;;;;;;18.48;38.96;101226.72;5031156;28;20071;-36
2023/12/02 06:35:10;;;;;;;10.57;7.20;;;;;;;18.58;38.96;101229.50;5025730;28;20190;-37
2023/12/02 06:37:35;;;;;;;8.73;7.15;;;;;;;18.66;38.81;101228.97;5040257;28;20040;-37
2023/12/02 06:40:01;;;;;;;9.13;7.07;;;;;;;18.76;38.53;101233.63;5042825;28;20032;-37
2023/12/02 06:42:26;;;;;;;8.10;6.35;;;;;;;18.85;38.73;101239.44;5036781;28;20157;-36
2023/12/02 06:44:52;;;;;;;9.02;6.70;;;;;;;18.92;38.51;101238.09;5024687;28;20110;-37
2023/12/02 06:47:17;;;;;;;8.57;7.00;;;;;;;18.99;38.31;101239.75;5024808;28;20025;-38
2023/12/02 06:49:43;;;;;;;8.23;7.05;;;;;;;19.02;38.41;101240.03;5044874;28;20087;-40
2023/12/02 06:52:08;;;;;;;7.57;6.78;;;;;;;19.04;38.36;101243.34;5044525;28;20321;-40
2023/12/02 06:54:37;;;;;;;8.55;6.95;;;;;;;19.03;38.36;101251.84;5044220;28;20032;-37
2023/12/02 06:57:06;;;;;;;8.65;6.57;;;;;;;19.00;37.95;101255.94;5045915;28;20492;-40
2023/12/02 06:59:32;;;;;;;9.30;7.15;;;;;;;19.00;38.20;101260.63;5041924;28;20041;-40
2023/12/02 07:01:57;;;;;;;7.80;6.68;;;;;;;18.97;38.23;101261.16;5044187;28;20025;-39
2023/12/02 07:04:22;;;;;;;10.20;7.03;;;;;;;18.95;38.25;101266.13;5033682;28;20040;-39
2023/12/02 07:06:49;;;;;;;8.20;7.13;;;;;;;18.94;38.24;101265.28;5023231;28;20408;-39
2023/12/02 07:09:14;;;;;;;9.93;7.30;;;;;;;18.91;37.97;101269.41;5043404;28;20470;-39
2023/12/02 07:11:39;;;;;;;8.45;7.55;;;;;;;18.87;38.08;101271.03;5044179;28;20025;-40
2023/12/02 07:14:05;;;;;;;8.38;6.90;;;;;;;18.84;38.33;101279.00;5044545;28;20139;-39
2023/12/02 07:16:30;;;;;;;8.20;6.93;;;;;;;18.81;38.24;101274.88;5043366;28;20390;-40
2023/12/02 07:18:56;;;;;;;8.30;6.80;;;;;;;18.80;38.17;101283.34;5035242;28;20181;-40
2023/12/02 07:21:22;;;;;;;8.77;7.35;;;;;;;18.80;38.22;101278.69;5016798;28;20021;-40
2023/12/02 07:23:47;;;;;;;8.65;7.35;;;;;;;18.80;38.02;101292.44;5039040;28;20029;-38
2023/12/02 07:26:13;;;;;;;7.90;7.10;;;;;;;18.83;38.28;101285.56;5036547;28;20024;-40
2023/12/02 07:28:38;;;;;;;8.00;6.93;;;;;;;18.86;38.31;101290.50;5022793;28;20068;-40
2023/12/02 07:31:04;;;;;;;8.02;7.03;;;;;;;18.90;38.14;101292.44;5040683;28;20073;-40
2023/12/02 07:33:30;;;;;;;7.50;6.72;;;;;;;18.95;38.21;101286.16;5039742;28;20104;-39
2023/12/02 07:35:55;;;;;;;9.07;7.45;;;;;;;19.00;38.10;101299.09;5021687;28;20029;-40
2023/12/02 07:38:20;;;;;;;9.45;7.53;;;;;;;19.03;38.15;101295.78;5042832;28;20527;-40
2023/12/02 07:40:46;;;;;;;8.18;7.03;;;;;;;19.06;38.43;101301.56;5044985;28;20039;-40
2023/12/02 07:43:11;;;;;;;8.05;7.00;;;;;;;19.10;38.14;101312.81;5016901;28;20523;-40
2023/12/02 07:45:37;;;;;;;9.55;6.88;;;;;;;19.11;37.96;101306.25;5038043;28;20036;-40
2023/12/02 07:48:04;;;;;;;9.63;6.90;;;;;;;19.12;37.95;101307.09;5041376;28;20414;-40
2023/12/02 07:50:29;;;;;;;11.93;7.32;;;;;;;19.12;38.13;101318.06;5047598;28;20055;-40
2023/12/02 07:52:54;;;;;;;8.48;6.60;;;;;;;19.09;37.99;101316.66;5023312;28;20040;-40
2023/12/02 07:55:20;;;;;;;10.95;7.63;;;;;;;19.07;38.06;101318.88;5036509;28;20052;-39
2023/12/02 07:57:45;;;;;;;8.25;6.85;;;;;;;19.03;38.04;101323.25;5044014;28;20033;-40
2023/12/02 08:00:11;;;;;;;8.38;6.95;;;;;;;18.99;38.06;101333.97;5033953;28;20111;-40
2023/12/02 08:02:36;;;;;;;8.85;7.43;;;;;;;18.96;38.07;101328.19;5020842;28;20047;-39
2023/12/02 08:05:02;;;;;;;11.35;7.30;;;;;;;18.94;38.00;101333.94;5041785;28;20373;-39
2023/12/02 08:07:28;;;;;;;9.65;7.45;;;;;;;18.91;37.94;101335.31;5041441;28;20027;-39
2023/12/02 08:09:53;;;;;;;8.65;7.28;;;;;;;18.90;38.02;101341.06;5023393;28;20473;-40
2023/12/02 08:12:18;;;;;;;8.95;7.35;;;;;;;18.86;38.15;101337.19;5037079;28;20056;-40
2023/12/02 08:14:44;;;;;;;9.25;7.18;;;;;;;18.83;38.06;101338.56;5042432;28;20017;-39
2023/12/02 08:17:09;;;;;;;10.73;7.65;;;;;;;18.80;38.21;101338.28;5042651;28;20024;-37
2023/12/02 08:19:35;;;;;;;8.65;7.38;;;;;;;18.75;38.26;101336.34;5037481;28;20043;-36
2023/12/02 08:22:01;;;;;;;10.82;7.88;;;;;;;18.72;38.01;101337.72;5036904;28;20017;-36
2023/12/02 08:24:26;;;;;;;9.05;7.40;;;;;;;18.65;38.11;101342.66;5032666;28;20029;-35
2023/12/02 08:26:52;;;;;;;10.32;7.90;;;;;;;18.62;38.32;101343.16;5042201;28;20021;-36
2023/12/02 08:29:17;;;;;;;9.48;7.90;;;;;;;18.58;38.34;101342.88;5038294;28;20044;-36
2023/12/02 08:31:42;;;;;;;11.88;8.13;;;;;;;18.54;38.31;101346.41;5039602;28;20049;-35
2023/12/02 08:34:09;;;;;;;9.77;8.25;;;;;;;18.51;38.32;101357.94;5040330;28;20091;-36
2023/12/02 08:36:35;;;;;;;10.30;8.30;;;;;;;18.46;38.36;101353.25;5040823;28;20398;-36
2023/12/02 08:39:02;;;;;;;10.20;7.93;;;;;;;18.42;38.44;101358.47;5040942;28;20025;-36
2023/12/02 08:41:27;;;;;;;16.00;9.07;;;;;;;18.40;38.42;101359.81;5041070;28;20021;-37
2023/12/02 08:43:53;;;;;;;13.57;8.65;;;;;;;18.35;38.63;101357.06;5038662;28;20033;-37
2023/12/02 08:46:18;;;;;;;18.10;9.63;;;;;;;18.33;38.51;101356.47;5041752;28;20397;-37
2023/12/02 08:48:44;;;;;;;13.50;9.35;;;;;;;18.32;38.48;101369.41;5040079;28;20056;-37
2023/12/02 08:51:10;;;;;;;13.73;8.43;;;;;;;18.30;38.67;101354.28;5041210;28;20033;-36
2023/12/02 08:53:35;;;;;;;14.50;9.90;;;;;;;18.29;38.61;101364.41;5040472;28;20313;-37
2023/12/02 08:56:01;;;;;;;14.32;9.43;;;;;;;18.26;38.60;101370.47;5040605;28;20043;-37
2023/12/02 08:58:26;;;;;;;13.65;9.43;;;;;;;18.26;38.79;101367.72;5017583;28;20067;-37
2023/12/02 09:00:52;;;;;;;12.57;8.90;;;;;;;18.24;38.74;101376.19;5033770;28;20234;-36
2023/12/02 09:03:17;;;;;;;14.50;9.07;;;;;;;18.26;38.85;101378.69;5037753;28;20032;-36
2023/12/02 09:05:43;;;;;;;12.93;9.07;;;;;;;18.23;38.85;101377.31;5039390;28;20416;-36
2023/12/02 09:08:09;;;;;;;12.27;9.70;;;;;;;18.25;38.93;101377.03;5037372;28;20036;-37
2023/12/02 09:10:34;;;;;;;13.00;9.40;;;;;;;18.23;38.89;101371.81;5039388;28;20543;-36
2023/12/02 09:12:59;;;;;;;13.40;9.23;;;;;;;18.23;38.77;101379.22;5039403;28;20044;-37
2023/12/02 09:15:35;;;;;;;12.30;9.52;;;;;;;18.23;38.85;101384.69;5039874;28;20624;-37
2023/12/02 09:18:09;;;;;;;11.90;9.32;;;;;;;18.20;38.87;101394.28;5036115;28;20025;-37
2023/12/02 09:20:41;;;;;;;15.57;9.52;;;;;;;18.19;38.88;101400.84;5040033;28;20137;-36
2023/12/02 09:23:07;;;;;;;16.38;10.30;;;;;;;18.16;38.77;101406.88;5042605;28;20029;-37
2023/12/02 09:25:38;;;;;;;18.50;10.55;;;;;;;18.15;38.82;101402.47;5022815;28;20039;-37
2023/12/02 09:28:06;;;;;;;30.88;11.93;;;;;;;18.12;38.92;101409.31;5040841;28;20029;-35
2023/12/02 09:30:40;;;;;;;36.40;12.90;;;;;;;18.09;39.02;101407.09;5042131;28;20037;-37
2023/12/02 09:33:06;;;;;;;35.70;14.10;;;;;;;18.07;38.96;101408.47;5026051;28;20106;-36
2023/12/02 09:35:32;;;;;;;39.47;14.07;;;;;;;18.06;39.05;101406.78;5043460;28;20029;-37
2023/12/02 09:38:02;;;;;;;42.28;14.95;;;;;;;18.03;39.06;101410.09;5041715;28;20033;-36
2023/12/02 09:40:42;;;;;;;37.25;14.48;;;;;;;18.01;39.05;101410.31;5026557;28;20493;-36
2023/12/02 09:43:26;;;;;;;29.63;13.27;;;;;;;17.98;39.13;101405.38;5045068;28;20189;-39
2023/12/02 09:45:59;;;;;;;32.67;13.50;;;;;;;17.96;39.21;101404.81;5026695;28;20036;-39
2023/12/02 09:48:28;;;;;;;32.58;12.85;;;;;;;17.93;39.30;101405.31;5018559;28;20144;-39
2023/12/02 09:51:03;;;;;;;23.08;12.32;;;;;;;17.93;39.30;101408.88;5044721;28;20028;-35
2023/12/02 09:54:05;;;;;;;31.48;13.20;;;;;;;17.91;39.06;101408.31;5022812;28;20037;-35
2023/12/02 09:56:41;;;;;;;24.35;11.75;;;;;;;17.89;39.32;101407.75;5042758;28;20024;-37
2023/12/02 09:59:53;;;;;;;28.35;12.77;;;;;;;17.88;39.29;101411.59;5026480;28;20033;-37
2023/12/02 10:02:26;;;;;;;24.23;12.00;;;;;;;17.86;39.10;101416.50;5023958;28;20033;-39
2023/12/02 10:05:04;;;;;;;24.53;11.23;;;;;;;17.86;39.15;101423.91;5041744;28;20025;-40
2023/12/02 10:07:54;;;;;;;27.50;11.27;;;;;;;17.83;39.08;101416.19;5042342;28;20036;-39
2023/12/02 10:10:22;;;;;;;23.90;11.52;;;;;;;17.83;39.09;101416.19;5045215;28;20430;-39
2023/12/02 10:12:59;;;;;;;19.95;10.77;;;;;;;17.80;39.07;101425.75;5043812;28;20527;-39
2023/12/02 10:15:28;;;;;;;23.17;11.10;;;;;;;17.79;39.23;101426.84;5026198;28;20112;-39
2023/12/02 10:18:01;;;;;;;21.58;11.07;;;;;;;17.75;39.30;101429.28;5023239;28;20472;-39
2023/12/02 10:20:28;;;;;;;20.20;10.90;;;;;;;17.73;39.17;101428.75;5039601;28;20091;-39
2023/12/02 10:23:28;;;;;;;16.45;10.30;;;;;;;17.70;39.54;101423.75;5049688;28;20037;-39
2023/12/02 10:26:10;;;;;;;18.73;9.63;;;;;;;17.69;39.41;101430.31;4999813;28;20036;-39
2023/12/02 10:28:47;;;;;;;17.65;10.32;;;;;;;17.68;39.45;101425.94;5031747;28;20037;-39
2023/12/02 10:31:25;;;;;;;19.27;9.40;;;;;;;17.70;39.57;101426.50;5043975;28;20041;-39
2023/12/02 10:33:57;;;;;;;16.08;8.60;;;;;;;17.70;39.41;101420.22;5038310;28;20028;-39
2023/12/02 10:36:26;;;;;;;17.23;8.88;;;;;;;17.72;39.58;101421.59;5038094;28;20055;-39
2023/12/02 10:39:12;;;;;;;16.85;9.32;;;;;;;17.74;39.50;101427.66;5039133;28;20029;-39
2023/12/02 10:41:43;;;;;;;14.82;8.55;;;;;;;17.77;39.49;101426.31;5024202;28;20029;-38
2023/12/02 10:44:09;;;;;;;14.75;8.98;;;;;;;17.79;39.51;101419.47;5040891;28;20032;-39
2023/12/02 10:46:35;;;;;;;13.15;8.88;;;;;;;17.81;39.52;101420.00;5033886;28;20276;-37
2023/12/02 10:49:01;;;;;;;14.38;9.45;;;;;;;17.85;39.61;101419.50;5008060;28;20028;-36
2023/12/02 10:51:27;;;;;;;17.17;9.13;;;;;;;17.87;39.71;101412.66;5043200;28;20021;-37
2023/12/02 10:53:58;;;;;;;11.30;8.52;;;;;;;17.91;39.80;101404.75;5015493;28;20554;-37
2023/12/02 10:56:26;;;;;;;14.20;9.30;;;;;;;17.94;39.62;101412.47;5044234;28;20021;-36
2023/12/02 10:58:52;;;;;;;13.43;8.75;;;;;;;17.96;39.69;101402.91;5038984;28;20027;-39
2023/12/02 11:01:44;;;;;;;12.27;8.70;;;;;;;17.99;39.61;101398.81;5044200;28;20064;-39
2023/12/02 11:04:21;;;;;;;13.32;8.60;;;;;;;18.01;39.71;101402.09;5019271;28;20457;-39
2023/12/02 11:06:51;;;;;;;11.88;8.60;;;;;;;18.02;39.63;101403.75;5009223;28;20445;-37
2023/12/02 11:09:37;;;;;;;11.27;8.48;;;;;;;18.05;39.67;101411.47;5020687;28;20028;-36
2023/12/02 11:12:06;;;;;;;11.50;8.30;;;;;;;18.07;39.63;101411.19;5041911;28;20037;-38
2023/12/02 11:14:37;;;;;;;12.02;8.90;;;;;;;18.07;39.64;101412.00;5043634;28;20031;-39
2023/12/02 11:17:09;;;;;;;11.60;8.02;;;;;;;18.08;39.59;101405.44;5044072;28;20540;-38
2023/12/02 11:19:55;;;;;;;10.82;8.38;;;;;;;18.10;39.42;101411.50;5042568;28;20335;-38